Anchorage, Utah
Current Conditions -  °F | °C
As of 7:28 AM on Tuesday 21 Oct 2014 (Local Time) from KHIF Reporting Station
Broken Clouds Broken Clouds  
Wind Chill: 63°   Ceiling: 9000
Heat Index: 63°   Visibility: 10mi
Dew Point: 39°   Wind: 22mph
Humidity: 42%   Direction: 180°S
Pressure: 29.89"   Gusts: 29mph
Location:  41.123°N, 112.063°W
Report Text: KHIF 211328Z AUTO 18019G25KT 10SM BKN090 BKN110 17/04 A2989 RMK AO2
Loading
Personal Weather Stations






























Interactive Weather Map
Tropical Storm Tracking
New forecast layout! Learn more

10-Day Weather Forecast

Advertisements
Track Severe Weather on mobile